sensor_id;sensor_type;location;lat;lon;timestamp;temperature;humidity
1225;DHT22;602;48.000;7.840;2023-04-03T00:01:11;8.70;99.90
1225;DHT22;602;48.000;7.840;2023-04-03T00:03:38;8.60;99.90
1225;DHT22;602;48.000;7.840;2023-04-03T00:06:11;8.60;99.90
1225;DHT22;602;48.000;7.840;2023-04-03T00:08:39;8.50;99.90
1225;DHT22;602;48.000;7.840;2023-04-03T00:11:06;8.60;99.90
1225;DHT22;602;48.000;7.840;2023-04-03T00:13:34;8.60;99.90
1225;DHT22;602;48.000;7.840;2023-04-03T00:16:01;8.60;99.90
1225;DHT22;602;48.000;7.840;2023-04-03T00:18:29;8.70;99.90
1225;DHT22;602;48.000;7.840;2023-04-03T00:20:56;8.60;99.90
1225;DHT22;602;48.000;7.840;2023-04-03T00:23:25;8.60;99.90
1225;DHT22;602;48.000;7.840;2023-04-03T00:25:52;8.50;99.90
1225;DHT22;602;48.000;7.840;2023-04-03T00:28:20;8.60;99.90
1225;DHT22;602;48.000;7.840;2023-04-03T00:30:49;8.60;99.90
1225;DHT22;602;48.000;7.840;2023-04-03T00:33:18;8.60;99.90
1225;DHT22;602;48.000;7.840;2023-04-03T00:35:47;8.70;99.90
1225;DHT22;602;48.000;7.840;2023-04-03T00:38:14;8.70;99.90
1225;DHT22;602;48.000;7.840;2023-04-03T00:40:45;8.70;99.90
1225;DHT22;602;48.000;7.840;2023-04-03T00:43:15;8.60;99.90
1225;DHT22;602;48.000;7.840;2023-04-03T00:45:44;8.40;99.90
1225;DHT22;602;48.000;7.840;2023-04-03T00:48:15;8.40;99.90
1225;DHT22;602;48.000;7.840;2023-04-03T00:50:46;8.40;99.90
1225;DHT22;602;48.000;7.840;2023-04-03T00:53:17;8.40;99.90
1225;DHT22;602;48.000;7.840;2023-04-03T00:55:47;8.30;99.90
1225;DHT22;602;48.000;7.840;2023-04-03T00:58:16;8.20;99.90
1225;DHT22;602;48.000;7.840;2023-04-03T01:00:48;8.20;99.90
1225;DHT22;602;48.000;7.840;2023-04-03T01:03:17;8.10;99.90
1225;DHT22;602;48.000;7.840;2023-04-03T01:05:44;8.00;99.90
1225;DHT22;602;48.000;7.840;2023-04-03T01:08:11;7.90;99.90
1225;DHT22;602;48.000;7.840;2023-04-03T01:10:40;8.00;99.90
1225;DHT22;602;48.000;7.840;2023-04-03T01:13:21;8.10;99.90
1225;DHT22;602;48.000;7.840;2023-04-03T01:15:49;8.00;99.90
1225;DHT22;602;48.000;7.840;2023-04-03T01:18:16;8.00;99.90
1225;DHT22;602;48.000;7.840;2023-04-03T01:21:00;8.00;99.90
1225;DHT22;602;48.000;7.840;2023-04-03T01:23:40;7.80;99.90
1225;DHT22;602;48.000;7.840;2023-04-03T01:26:09;7.90;99.90
1225;DHT22;602;48.000;7.840;2023-04-03T01:28:38;7.90;99.90
1225;DHT22;602;48.000;7.840;2023-04-03T01:31:12;8.00;99.90
1225;DHT22;602;48.000;7.840;2023-04-03T01:33:43;8.10;99.90
1225;DHT22;602;48.000;7.840;2023-04-03T01:36:16;8.20;99.90
1225;DHT22;602;48.000;7.840;2023-04-03T01:38:44;8.30;99.90
1225;DHT22;602;48.000;7.840;2023-04-03T01:41:11;8.30;99.90
1225;DHT22;602;48.000;7.840;2023-04-03T01:43:38;8.30;99.90
1225;DHT22;602;48.000;7.840;2023-04-03T01:46:05;8.40;99.90
1225;DHT22;602;48.000;7.840;2023-04-03T01:48:33;8.50;99.90
1225;DHT22;602;48.000;7.840;2023-04-03T01:51:01;8.50;99.90
1225;DHT22;602;48.000;7.840;2023-04-03T01:53:29;8.40;99.90
1225;DHT22;602;48.000;7.840;2023-04-03T01:55:57;8.40;99.90
1225;DHT22;602;48.000;7.840;2023-04-03T01:58:24;8.40;99.90
1225;DHT22;602;48.000;7.840;2023-04-03T02:00:51;8.40;99.90
1225;DHT22;602;48.000;7.840;2023-04-03T02:03:19;8.30;99.90
1225;DHT22;602;48.000;7.840;2023-04-03T02:05:46;8.20;99.90
1225;DHT22;602;48.000;7.840;2023-04-03T02:08:14;8.30;99.90
1225;DHT22;602;48.000;7.840;2023-04-03T02:10:43;8.30;99.90
1225;DHT22;602;48.000;7.840;2023-04-03T02:13:13;8.30;99.90
1225;DHT22;602;48.000;7.840;2023-04-03T02:15:40;8.20;99.90
1225;DHT22;602;48.000;7.840;2023-04-03T02:18:07;8.00;99.90
1225;DHT22;602;48.000;7.840;2023-04-03T02:20:34;7.90;99.90
1225;DHT22;602;48.000;7.840;2023-04-03T02:23:02;7.90;99.90
1225;DHT22;602;48.000;7.840;2023-04-03T02:25:31;7.70;99.90
1225;DHT22;602;48.000;7.840;2023-04-03T02:27:59;7.90;99.90
1225;DHT22;602;48.000;7.840;2023-04-03T02:30:27;7.80;99.90
1225;DHT22;602;48.000;7.840;2023-04-03T02:32:59;7.60;99.90
1225;DHT22;602;48.000;7.840;2023-04-03T02:35:26;7.70;99.90
1225;DHT22;602;48.000;7.840;2023-04-03T02:37:53;7.60;99.90
1225;DHT22;602;48.000;7.840;2023-04-03T02:40:20;7.50;99.90
1225;DHT22;602;48.000;7.840;2023-04-03T02:42:48;7.50;99.90
1225;DHT22;602;48.000;7.840;2023-04-03T02:45:16;7.60;99.90
1225;DHT22;602;48.000;7.840;2023-04-03T02:47:43;7.60;99.90
1225;DHT22;602;48.000;7.840;2023-04-03T02:50:10;7.50;99.90
1225;DHT22;602;48.000;7.840;2023-04-03T02:52:37;7.50;99.90
1225;DHT22;602;48.000;7.840;2023-04-03T02:55:05;7.50;99.90
1225;DHT22;602;48.000;7.840;2023-04-03T02:57:34;7.60;99.90
1225;DHT22;602;48.000;7.840;2023-04-03T03:00:06;7.60;99.90
1225;DHT22;602;48.000;7.840;2023-04-03T03:02:34;7.60;99.90
1225;DHT22;602;48.000;7.840;2023-04-03T03:05:01;7.60;99.90
1225;DHT22;602;48.000;7.840;2023-04-03T03:07:28;7.60;99.90
1225;DHT22;602;48.000;7.840;2023-04-03T03:09:55;7.50;99.90
1225;DHT22;602;48.000;7.840;2023-04-03T03:12:22;7.40;99.90
1225;DHT22;602;48.000;7.840;2023-04-03T03:14:50;7.30;99.90
1225;DHT22;602;48.000;7.840;2023-04-03T03:17:18;7.30;99.90
1225;DHT22;602;48.000;7.840;2023-04-03T03:19:45;7.40;99.90
1225;DHT22;602;48.000;7.840;2023-04-03T03:22:12;7.30;99.90
1225;DHT22;602;48.000;7.840;2023-04-03T03:24:39;7.30;99.90
1225;DHT22;602;48.000;7.840;2023-04-03T03:27:05;7.30;99.90
1225;DHT22;602;48.000;7.840;2023-04-03T03:29:32;7.40;99.90
1225;DHT22;602;48.000;7.840;2023-04-03T03:31:59;7.30;99.90
1225;DHT22;602;48.000;7.840;2023-04-03T03:34:27;7.30;99.90
1225;DHT22;602;48.000;7.840;2023-04-03T03:36:54;7.40;99.90
1225;DHT22;602;48.000;7.840;2023-04-03T03:39:21;7.30;99.90
1225;DHT22;602;48.000;7.840;2023-04-03T03:41:48;7.30;99.90
1225;DHT22;602;48.000;7.840;2023-04-03T03:44:15;7.30;99.90
1225;DHT22;602;48.000;7.840;2023-04-03T03:46:42;7.30;99.90
1225;DHT22;602;48.000;7.840;2023-04-03T03:49:08;7.30;99.90
1225;DHT22;602;48.000;7.840;2023-04-03T03:51:37;7.30;99.90
1225;DHT22;602;48.000;7.840;2023-04-03T03:54:05;7.30;99.90
1225;DHT22;602;48.000;7.840;2023-04-03T03:56:33;7.20;99.90
1225;DHT22;602;48.000;7.840;2023-04-03T03:59:00;7.30;99.90
1225;DHT22;602;48.000;7.840;2023-04-03T04:01:27;7.30;99.90
1225;DHT22;602;48.000;7.840;2023-04-03T04:03:54;7.30;99.90
1225;DHT22;602;48.000;7.840;2023-04-03T04:06:21;7.30;99.90
1225;DHT22;602;48.000;7.840;2023-04-03T04:08:49;7.30;99.90
1225;DHT22;602;48.000;7.840;2023-04-03T04:11:16;7.30;99.90
1225;DHT22;602;48.000;7.840;2023-04-03T04:13:44;7.30;99.90
1225;DHT22;602;48.000;7.840;2023-04-03T04:16:11;7.30;99.90
1225;DHT22;602;48.000;7.840;2023-04-03T04:18:37;7.40;99.90
1225;DHT22;602;48.000;7.840;2023-04-03T04:21:04;7.50;99.90
1225;DHT22;602;48.000;7.840;2023-04-03T04:23:31;7.50;99.90
1225;DHT22;602;48.000;7.840;2023-04-03T04:25:59;7.50;99.90
1225;DHT22;602;48.000;7.840;2023-04-03T04:28:26;7.40;99.90
1225;DHT22;602;48.000;7.840;2023-04-03T04:30:53;7.50;99.90
1225;DHT22;602;48.000;7.840;2023-04-03T04:33:20;7.50;99.90
1225;DHT22;602;48.000;7.840;2023-04-03T04:35:47;7.50;99.90
1225;DHT22;602;48.000;7.840;2023-04-03T04:38:14;7.60;99.90
1225;DHT22;602;48.000;7.840;2023-04-03T04:40:41;7.40;99.90
1225;DHT22;602;48.000;7.840;2023-04-03T04:43:09;7.30;99.90
1225;DHT22;602;48.000;7.840;2023-04-03T04:45:39;7.40;99.90
1225;DHT22;602;48.000;7.840;2023-04-03T04:48:06;7.40;99.90
1225;DHT22;602;48.000;7.840;2023-04-03T04:50:33;7.30;99.90
1225;DHT22;602;48.000;7.840;2023-04-03T04:53:00;7.20;99.90
1225;DHT22;602;48.000;7.840;2023-04-03T04:55:27;7.30;99.90
1225;DHT22;602;48.000;7.840;2023-04-03T04:57:54;7.30;99.90
1225;DHT22;602;48.000;7.840;2023-04-03T05:00:22;7.40;99.90
1225;DHT22;602;48.000;7.840;2023-04-03T05:02:49;7.40;99.90
1225;DHT22;602;48.000;7.840;2023-04-03T05:05:16;7.50;99.90
1225;DHT22;602;48.000;7.840;2023-04-03T05:07:43;7.50;99.90
1225;DHT22;602;48.000;7.840;2023-04-03T05:10:10;7.40;99.90
1225;DHT22;602;48.000;7.840;2023-04-03T05:12:36;7.10;99.90
1225;DHT22;602;48.000;7.840;2023-04-03T05:15:04;7.20;99.90
1225;DHT22;602;48.000;7.840;2023-04-03T05:17:33;7.30;99.90
1225;DHT22;602;48.000;7.840;2023-04-03T05:19:59;7.30;99.90
1225;DHT22;602;48.000;7.840;2023-04-03T05:22:26;7.30;99.90
1225;DHT22;602;48.000;7.840;2023-04-03T05:24:53;7.20;99.90
1225;DHT22;602;48.000;7.840;2023-04-03T05:27:20;7.20;99.90
1225;DHT22;602;48.000;7.840;2023-04-03T05:29:49;7.20;99.90
1225;DHT22;602;48.000;7.840;2023-04-03T05:32:16;7.30;99.90
1225;DHT22;602;48.000;7.840;2023-04-03T05:34:44;7.20;99.90
1225;DHT22;602;48.000;7.840;2023-04-03T05:37:11;7.40;99.90
1225;DHT22;602;48.000;7.840;2023-04-03T05:39:38;7.50;99.90
1225;DHT22;602;48.000;7.840;2023-04-03T05:42:06;7.60;99.90
1225;DHT22;602;48.000;7.840;2023-04-03T05:44:33;7.60;99.90
1225;DHT22;602;48.000;7.840;2023-04-03T05:47:00;7.50;99.90
1225;DHT22;602;48.000;7.840;2023-04-03T05:49:27;7.40;99.90
1225;DHT22;602;48.000;7.840;2023-04-03T05:51:55;7.50;99.90
1225;DHT22;602;48.000;7.840;2023-04-03T05:54:24;7.50;99.90
1225;DHT22;602;48.000;7.840;2023-04-03T05:56:52;7.60;99.90
1225;DHT22;602;48.000;7.840;2023-04-03T05:59:20;7.60;99.90
1225;DHT22;602;48.000;7.840;2023-04-03T06:01:47;7.60;99.90
1225;DHT22;602;48.000;7.840;2023-04-03T06:04:14;7.60;99.90
1225;DHT22;602;48.000;7.840;2023-04-03T06:06:45;7.60;99.90
1225;DHT22;602;48.000;7.840;2023-04-03T06:09:14;7.60;99.90
1225;DHT22;602;48.000;7.840;2023-04-03T06:11:42;7.60;99.90
1225;DHT22;602;48.000;7.840;2023-04-03T06:14:09;7.60;99.90
1225;DHT22;602;48.000;7.840;2023-04-03T06:16:36;7.70;99.90
1225;DHT22;602;48.000;7.840;2023-04-03T06:19:03;7.70;99.90
1225;DHT22;602;48.000;7.840;2023-04-03T06:21:31;7.70;99.90
1225;DHT22;602;48.000;7.840;2023-04-03T06:23:58;7.80;99.90
1225;DHT22;602;48.000;7.840;2023-04-03T06:26:26;7.90;99.90
1225;DHT22;602;48.000;7.840;2023-04-03T06:28:53;7.90;99.90
1225;DHT22;602;48.000;7.840;2023-04-03T06:31:20;7.80;99.90
1225;DHT22;602;48.000;7.840;2023-04-03T06:33:47;7.90;99.90
1225;DHT22;602;48.000;7.840;2023-04-03T06:36:14;7.90;99.90
1225;DHT22;602;48.000;7.840;2023-04-03T06:38:45;7.80;99.90
1225;DHT22;602;48.000;7.840;2023-04-03T06:41:12;7.70;99.90
1225;DHT22;602;48.000;7.840;2023-04-03T06:43:40;7.70;99.90
1225;DHT22;602;48.000;7.840;2023-04-03T06:46:13;7.80;99.90
1225;DHT22;602;48.000;7.840;2023-04-03T06:48:41;7.80;99.90
1225;DHT22;602;48.000;7.840;2023-04-03T06:51:14;7.90;99.90
1225;DHT22;602;48.000;7.840;2023-04-03T06:53:43;7.90;99.90
1225;DHT22;602;48.000;7.840;2023-04-03T06:56:10;8.00;99.90
1225;DHT22;602;48.000;7.840;2023-04-03T06:58:37;8.00;99.90
1225;DHT22;602;48.000;7.840;2023-04-03T07:01:05;8.10;99.90
1225;DHT22;602;48.000;7.840;2023-04-03T07:03:32;8.30;99.90
1225;DHT22;602;48.000;7.840;2023-04-03T07:05:59;8.30;99.90
1225;DHT22;602;48.000;7.840;2023-04-03T07:08:25;8.40;99.90
1225;DHT22;602;48.000;7.840;2023-04-03T07:10:52;8.40;99.90
1225;DHT22;602;48.000;7.840;2023-04-03T07:13:19;8.20;99.90
1225;DHT22;602;48.000;7.840;2023-04-03T07:15:46;7.90;99.90
1225;DHT22;602;48.000;7.840;2023-04-03T07:18:20;7.80;99.90
1225;DHT22;602;48.000;7.840;2023-04-03T07:20:47;8.00;99.90
1225;DHT22;602;48.000;7.840;2023-04-03T07:23:14;7.90;99.90
1225;DHT22;602;48.000;7.840;2023-04-03T07:25:42;8.00;99.90
1225;DHT22;602;48.000;7.840;2023-04-03T07:28:10;8.10;99.90
1225;DHT22;602;48.000;7.840;2023-04-03T07:30:42;7.90;99.90
1225;DHT22;602;48.000;7.840;2023-04-03T07:33:11;8.00;99.90
1225;DHT22;602;48.000;7.840;2023-04-03T07:35:40;8.00;99.90
1225;DHT22;602;48.000;7.840;2023-04-03T07:38:08;8.00;99.90
1225;DHT22;602;48.000;7.840;2023-04-03T07:40:35;8.00;99.90
1225;DHT22;602;48.000;7.840;2023-04-03T07:43:02;8.10;99.90
1225;DHT22;602;48.000;7.840;2023-04-03T07:45:29;8.20;99.90
1225;DHT22;602;48.000;7.840;2023-04-03T07:47:56;8.40;99.90
1225;DHT22;602;48.000;7.840;2023-04-03T07:50:23;8.30;99.90
1225;DHT22;602;48.000;7.840;2023-04-03T07:52:52;8.30;99.90
1225;DHT22;602;48.000;7.840;2023-04-03T07:55:20;8.20;99.90
1225;DHT22;602;48.000;7.840;2023-04-03T07:57:46;8.40;99.90
1225;DHT22;602;48.000;7.840;2023-04-03T08:00:14;8.50;99.90
1225;DHT22;602;48.000;7.840;2023-04-03T08:02:43;8.30;99.90
1225;DHT22;602;48.000;7.840;2023-04-03T08:05:10;8.50;99.90
1225;DHT22;602;48.000;7.840;2023-04-03T08:07:37;8.60;99.90
1225;DHT22;602;48.000;7.840;2023-04-03T08:10:07;8.60;99.90
1225;DHT22;602;48.000;7.840;2023-04-03T08:12:34;8.70;99.90
1225;DHT22;602;48.000;7.840;2023-04-03T08:15:03;8.70;99.90
1225;DHT22;602;48.000;7.840;2023-04-03T08:17:30;8.80;99.90
1225;DHT22;602;48.000;7.840;2023-04-03T08:19:56;9.00;99.90
1225;DHT22;602;48.000;7.840;2023-04-03T08:22:24;9.20;99.90
1225;DHT22;602;48.000;7.840;2023-04-03T08:24:50;9.20;99.90
1225;DHT22;602;48.000;7.840;2023-04-03T08:27:19;9.30;99.90
1225;DHT22;602;48.000;7.840;2023-04-03T08:29:45;9.30;99.90
1225;DHT22;602;48.000;7.840;2023-04-03T08:32:12;9.30;99.90
1225;DHT22;602;48.000;7.840;2023-04-03T08:34:39;9.20;99.90
1225;DHT22;602;48.000;7.840;2023-04-03T08:37:06;9.10;99.90
1225;DHT22;602;48.000;7.840;2023-04-03T08:39:33;9.30;99.90
1225;DHT22;602;48.000;7.840;2023-04-03T08:42:05;9.40;99.90
1225;DHT22;602;48.000;7.840;2023-04-03T08:44:39;9.50;99.90
1225;DHT22;602;48.000;7.840;2023-04-03T08:47:15;9.10;99.90
1225;DHT22;602;48.000;7.840;2023-04-03T08:49:47;9.20;99.90
1225;DHT22;602;48.000;7.840;2023-04-03T08:52:18;9.10;99.90
1225;DHT22;602;48.000;7.840;2023-04-03T08:54:50;9.20;99.90
1225;DHT22;602;48.000;7.840;2023-04-03T08:57:29;9.10;99.90
1225;DHT22;602;48.000;7.840;2023-04-03T08:59:59;9.00;99.90
1225;DHT22;602;48.000;7.840;2023-04-03T09:02:32;9.00;99.90
1225;DHT22;602;48.000;7.840;2023-04-03T09:05:02;9.10;99.90
1225;DHT22;602;48.000;7.840;2023-04-03T09:07:35;9.10;99.90
1225;DHT22;602;48.000;7.840;2023-04-03T09:10:04;8.50;99.90
1225;DHT22;602;48.000;7.840;2023-04-03T09:12:34;8.50;99.90
1225;DHT22;602;48.000;7.840;2023-04-03T09:15:11;8.50;99.90
1225;DHT22;602;48.000;7.840;2023-04-03T09:17:45;8.90;99.90
1225;DHT22;602;48.000;7.840;2023-04-03T09:20:21;8.80;99.90
1225;DHT22;602;48.000;7.840;2023-04-03T09:22:51;9.00;99.90
1225;DHT22;602;48.000;7.840;2023-04-03T09:25:22;9.20;99.90
1225;DHT22;602;48.000;7.840;2023-04-03T09:27:49;9.30;99.90
1225;DHT22;602;48.000;7.840;2023-04-03T09:30:21;9.20;99.90
1225;DHT22;602;48.000;7.840;2023-04-03T09:32:50;9.30;99.90
1225;DHT22;602;48.000;7.840;2023-04-03T09:35:21;9.50;99.90
1225;DHT22;602;48.000;7.840;2023-04-03T09:37:50;9.90;99.90
1225;DHT22;602;48.000;7.840;2023-04-03T09:40:32;10.00;99.90
1225;DHT22;602;48.000;7.840;2023-04-03T09:43:02;10.10;99.90
1225;DHT22;602;48.000;7.840;2023-04-03T09:45:32;10.50;99.90
1225;DHT22;602;48.000;7.840;2023-04-03T09:48:08;11.20;99.90
1225;DHT22;602;48.000;7.840;2023-04-03T09:50:36;11.30;99.90
1225;DHT22;602;48.000;7.840;2023-04-03T09:53:07;11.40;99.90
1225;DHT22;602;48.000;7.840;2023-04-03T09:55:51;11.60;99.90
1225;DHT22;602;48.000;7.840;2023-04-03T09:58:26;11.40;99.90
1225;DHT22;602;48.000;7.840;2023-04-03T10:00:57;11.10;99.90
1225;DHT22;602;48.000;7.840;2023-04-03T10:03:27;11.30;99.90
1225;DHT22;602;48.000;7.840;2023-04-03T10:05:55;11.20;99.90
1225;DHT22;602;48.000;7.840;2023-04-03T10:08:26;11.40;99.90
1225;DHT22;602;48.000;7.840;2023-04-03T10:11:11;11.50;99.90
1225;DHT22;602;48.000;7.840;2023-04-03T10:13:55;11.70;99.90
1225;DHT22;602;48.000;7.840;2023-04-03T10:16:29;11.90;99.90
1225;DHT22;602;48.000;7.840;2023-04-03T10:19:25;11.60;99.90
1225;DHT22;602;48.000;7.840;2023-04-03T10:21:59;11.60;99.90
1225;DHT22;602;48.000;7.840;2023-04-03T10:24:35;11.30;99.90
1225;DHT22;602;48.000;7.840;2023-04-03T10:27:06;10.90;99.90
1225;DHT22;602;48.000;7.840;2023-04-03T10:29:40;11.10;99.90
1225;DHT22;602;48.000;7.840;2023-04-03T10:35:12;10.90;99.90
1225;DHT22;602;48.000;7.840;2023-04-03T10:37:51;11.00;99.90
1225;DHT22;602;48.000;7.840;2023-04-03T10:40:27;11.00;99.90
1225;DHT22;602;48.000;7.840;2023-04-03T10:43:04;10.90;99.90
1225;DHT22;602;48.000;7.840;2023-04-03T10:45:47;10.90;99.90
1225;DHT22;602;48.000;7.840;2023-04-03T10:48:25;10.70;99.90
1225;DHT22;602;48.000;7.840;2023-04-03T10:50:59;10.60;99.90
1225;DHT22;602;48.000;7.840;2023-04-03T10:53:31;10.60;99.90
1225;DHT22;602;48.000;7.840;2023-04-03T10:56:06;10.80;99.90
1225;DHT22;602;48.000;7.840;2023-04-03T10:58:38;11.10;99.90
1225;DHT22;602;48.000;7.840;2023-04-03T11:01:09;11.00;99.90
1225;DHT22;602;48.000;7.840;2023-04-03T11:03:42;10.90;99.90
1225;DHT22;602;48.000;7.840;2023-04-03T11:06:12;10.80;99.90
1225;DHT22;602;48.000;7.840;2023-04-03T11:08:45;10.90;99.90
1225;DHT22;602;48.000;7.840;2023-04-03T11:11:15;10.80;99.90
1225;DHT22;602;48.000;7.840;2023-04-03T11:13:46;11.10;99.90
1225;DHT22;602;48.000;7.840;2023-04-03T11:16:21;10.90;99.90
1225;DHT22;602;48.000;7.840;2023-04-03T11:18:54;10.50;99.90
1225;DHT22;602;48.000;7.840;2023-04-03T11:21:28;10.60;99.90
1225;DHT22;602;48.000;7.840;2023-04-03T11:23:57;10.60;99.90
1225;DHT22;602;48.000;7.840;2023-04-03T11:26:29;10.60;99.90
1225;DHT22;602;48.000;7.840;2023-04-03T11:28:59;10.70;99.90
1225;DHT22;602;48.000;7.840;2023-04-03T11:31:42;11.00;99.90
1225;DHT22;602;48.000;7.840;2023-04-03T11:34:24;11.10;99.90
1225;DHT22;602;48.000;7.840;2023-04-03T11:36:55;11.10;99.90
1225;DHT22;602;48.000;7.840;2023-04-03T11:39:25;11.00;99.90
1225;DHT22;602;48.000;7.840;2023-04-03T11:41:54;11.20;99.90
1225;DHT22;602;48.000;7.840;2023-04-03T11:44:34;11.20;99.90
1225;DHT22;602;48.000;7.840;2023-04-03T11:47:03;11.30;99.90
1225;DHT22;602;48.000;7.840;2023-04-03T11:49:53;11.30;99.90
1225;DHT22;602;48.000;7.840;2023-04-03T11:53:00;11.40;99.90
1225;DHT22;602;48.000;7.840;2023-04-03T11:55:45;11.20;99.90
1225;DHT22;602;48.000;7.840;2023-04-03T11:58:15;10.90;99.90
1225;DHT22;602;48.000;7.840;2023-04-03T12:00:51;10.80;99.90
1225;DHT22;602;48.000;7.840;2023-04-03T12:09:56;11.50;99.90
1225;DHT22;602;48.000;7.840;2023-04-03T12:12:35;11.60;99.90
1225;DHT22;602;48.000;7.840;2023-04-03T12:18:31;11.80;99.90
1225;DHT22;602;48.000;7.840;2023-04-03T12:20:58;11.80;99.90
1225;DHT22;602;48.000;7.840;2023-04-03T12:23:30;11.60;99.90
1225;DHT22;602;48.000;7.840;2023-04-03T12:26:20;11.50;99.90
1225;DHT22;602;48.000;7.840;2023-04-03T12:28:48;11.20;99.90
1225;DHT22;602;48.000;7.840;2023-04-03T12:31:19;11.20;99.90
1225;DHT22;602;48.000;7.840;2023-04-03T12:34:12;11.10;99.90
1225;DHT22;602;48.000;7.840;2023-04-03T12:36:52;11.20;99.90
1225;DHT22;602;48.000;7.840;2023-04-03T12:41:57;11.00;99.90
1225;DHT22;602;48.000;7.840;2023-04-03T12:44:42;11.10;99.90
1225;DHT22;602;48.000;7.840;2023-04-03T12:47:25;11.30;99.90
1225;DHT22;602;48.000;7.840;2023-04-03T12:49:54;10.90;99.90
1225;DHT22;602;48.000;7.840;2023-04-03T12:52:33;10.70;99.90
1225;DHT22;602;48.000;7.840;2023-04-03T12:55:03;10.50;99.90
1225;DHT22;602;48.000;7.840;2023-04-03T12:57:36;10.50;99.90
1225;DHT22;602;48.000;7.840;2023-04-03T13:00:20;10.40;99.90
1225;DHT22;602;48.000;7.840;2023-04-03T13:02:47;10.80;99.90
1225;DHT22;602;48.000;7.840;2023-04-03T13:05:18;10.90;99.90
1225;DHT22;602;48.000;7.840;2023-04-03T13:07:49;11.00;99.90
1225;DHT22;602;48.000;7.840;2023-04-03T13:10:17;11.10;99.90
1225;DHT22;602;48.000;7.840;2023-04-03T13:12:49;11.10;99.90
1225;DHT22;602;48.000;7.840;2023-04-03T13:15:18;11.20;99.90
1225;DHT22;602;48.000;7.840;2023-04-03T13:17:46;11.20;99.90
1225;DHT22;602;48.000;7.840;2023-04-03T13:20:20;11.30;99.90
1225;DHT22;602;48.000;7.840;2023-04-03T13:22:52;11.50;99.90
1225;DHT22;602;48.000;7.840;2023-04-03T13:25:21;11.40;99.90
1225;DHT22;602;48.000;7.840;2023-04-03T13:27:50;11.20;99.90
1225;DHT22;602;48.000;7.840;2023-04-03T13:30:25;10.90;99.90
1225;DHT22;602;48.000;7.840;2023-04-03T13:32:52;10.80;99.90
1225;DHT22;602;48.000;7.840;2023-04-03T13:35:31;10.90;99.90
1225;DHT22;602;48.000;7.840;2023-04-03T13:38:00;11.10;99.90
1225;DHT22;602;48.000;7.840;2023-04-03T13:40:28;11.20;99.90
1225;DHT22;602;48.000;7.840;2023-04-03T13:43:02;11.20;99.90
1225;DHT22;602;48.000;7.840;2023-04-03T13:45:30;11.40;99.90
1225;DHT22;602;48.000;7.840;2023-04-03T13:48:10;11.30;99.90
1225;DHT22;602;48.000;7.840;2023-04-03T13:50:55;11.40;99.90
1225;DHT22;602;48.000;7.840;2023-04-03T13:53:45;11.40;99.90
1225;DHT22;602;48.000;7.840;2023-04-03T13:56:46;11.50;99.90
1225;DHT22;602;48.000;7.840;2023-04-03T13:59:35;11.40;99.90
1225;DHT22;602;48.000;7.840;2023-04-03T14:02:29;11.50;99.90
1225;DHT22;602;48.000;7.840;2023-04-03T14:05:14;11.60;99.90
1225;DHT22;602;48.000;7.840;2023-04-03T14:07:54;11.60;99.90
1225;DHT22;602;48.000;7.840;2023-04-03T14:10:38;11.70;99.90
1225;DHT22;602;48.000;7.840;2023-04-03T14:13:30;11.70;99.90
1225;DHT22;602;48.000;7.840;2023-04-03T14:16:18;11.70;99.90
1225;DHT22;602;48.000;7.840;2023-04-03T14:19:38;11.70;99.90
1225;DHT22;602;48.000;7.840;2023-04-03T14:22:24;11.60;99.90
1225;DHT22;602;48.000;7.840;2023-04-03T14:28:36;11.50;99.90
1225;DHT22;602;48.000;7.840;2023-04-03T14:31:07;11.30;99.90
1225;DHT22;602;48.000;7.840;2023-04-03T14:33:38;11.30;99.90
1225;DHT22;602;48.000;7.840;2023-04-03T14:39:34;11.30;99.90
1225;DHT22;602;48.000;7.840;2023-04-03T14:42:41;11.30;99.90
1225;DHT22;602;48.000;7.840;2023-04-03T14:45:26;11.20;99.90
1225;DHT22;602;48.000;7.840;2023-04-03T14:48:28;11.30;99.90
1225;DHT22;602;48.000;7.840;2023-04-03T14:51:04;11.20;99.90
1225;DHT22;602;48.000;7.840;2023-04-03T14:54:14;11.30;99.90
1225;DHT22;602;48.000;7.840;2023-04-03T14:56:51;11.40;99.90
1225;DHT22;602;48.000;7.840;2023-04-03T14:59:39;11.40;99.90
1225;DHT22;602;48.000;7.840;2023-04-03T15:02:25;11.20;99.90
1225;DHT22;602;48.000;7.840;2023-04-03T15:05:39;11.20;99.90
1225;DHT22;602;48.000;7.840;2023-04-03T15:08:26;11.10;99.90
1225;DHT22;602;48.000;7.840;2023-04-03T15:11:07;11.10;99.90
1225;DHT22;602;48.000;7.840;2023-04-03T15:13:34;11.10;99.90
1225;DHT22;602;48.000;7.840;2023-04-03T15:16:01;11.20;99.90
1225;DHT22;602;48.000;7.840;2023-04-03T15:18:32;11.00;99.90
1225;DHT22;602;48.000;7.840;2023-04-03T15:21:02;11.00;99.90
1225;DHT22;602;48.000;7.840;2023-04-03T15:23:29;10.40;99.90
1225;DHT22;602;48.000;7.840;2023-04-03T15:25:57;10.40;99.90
1225;DHT22;602;48.000;7.840;2023-04-03T15:28:28;10.40;99.90
1225;DHT22;602;48.000;7.840;2023-04-03T15:30:56;10.50;99.90
1225;DHT22;602;48.000;7.840;2023-04-03T15:33:24;10.40;99.90
1225;DHT22;602;48.000;7.840;2023-04-03T15:35:50;10.60;99.90
1225;DHT22;602;48.000;7.840;2023-04-03T15:38:19;10.60;99.90
1225;DHT22;602;48.000;7.840;2023-04-03T15:40:46;10.80;99.90
1225;DHT22;602;48.000;7.840;2023-04-03T15:43:14;10.90;99.90
1225;DHT22;602;48.000;7.840;2023-04-03T15:45:42;10.90;99.90
1225;DHT22;602;48.000;7.840;2023-04-03T15:48:10;10.90;99.90
1225;DHT22;602;48.000;7.840;2023-04-03T15:50:37;10.90;99.90
1225;DHT22;602;48.000;7.840;2023-04-03T15:53:05;11.00;99.90
1225;DHT22;602;48.000;7.840;2023-04-03T15:55:34;10.90;99.90
1225;DHT22;602;48.000;7.840;2023-04-03T15:58:04;10.80;99.90
1225;DHT22;602;48.000;7.840;2023-04-03T16:00:32;10.70;99.90
1225;DHT22;602;48.000;7.840;2023-04-03T16:03:00;10.70;99.90
1225;DHT22;602;48.000;7.840;2023-04-03T16:05:29;10.70;99.90
1225;DHT22;602;48.000;7.840;2023-04-03T16:07:57;10.60;99.90
1225;DHT22;602;48.000;7.840;2023-04-03T16:10:25;10.40;99.90
1225;DHT22;602;48.000;7.840;2023-04-03T16:12:54;10.40;99.90
1225;DHT22;602;48.000;7.840;2023-04-03T16:15:20;10.40;99.90
1225;DHT22;602;48.000;7.840;2023-04-03T16:17:48;10.30;99.90
1225;DHT22;602;48.000;7.840;2023-04-03T16:20:15;10.30;99.90
1225;DHT22;602;48.000;7.840;2023-04-03T16:22:43;10.40;99.90
1225;DHT22;602;48.000;7.840;2023-04-03T16:25:10;10.30;99.90
1225;DHT22;602;48.000;7.840;2023-04-03T16:27:37;10.30;99.90
1225;DHT22;602;48.000;7.840;2023-04-03T16:30:07;10.10;99.90
1225;DHT22;602;48.000;7.840;2023-04-03T16:32:35;10.10;99.90
1225;DHT22;602;48.000;7.840;2023-04-03T16:35:02;10.10;99.90
1225;DHT22;602;48.000;7.840;2023-04-03T16:37:29;10.10;99.90
1225;DHT22;602;48.000;7.840;2023-04-03T16:39:55;10.10;99.90
1225;DHT22;602;48.000;7.840;2023-04-03T16:42:23;9.80;99.90
1225;DHT22;602;48.000;7.840;2023-04-03T16:44:50;9.90;99.90
1225;DHT22;602;48.000;7.840;2023-04-03T16:47:18;9.90;99.90
1225;DHT22;602;48.000;7.840;2023-04-03T16:49:46;9.80;99.90
1225;DHT22;602;48.000;7.840;2023-04-03T16:52:13;9.80;99.90
1225;DHT22;602;48.000;7.840;2023-04-03T16:54:41;9.90;99.90
1225;DHT22;602;48.000;7.840;2023-04-03T16:57:08;10.00;99.90
1225;DHT22;602;48.000;7.840;2023-04-03T16:59:35;10.00;99.90
1225;DHT22;602;48.000;7.840;2023-04-03T17:02:01;9.90;99.90
1225;DHT22;602;48.000;7.840;2023-04-03T17:04:30;9.80;99.90
1225;DHT22;602;48.000;7.840;2023-04-03T17:06:57;9.90;99.90
1225;DHT22;602;48.000;7.840;2023-04-03T17:09:25;9.80;99.90
1225;DHT22;602;48.000;7.840;2023-04-03T17:11:52;9.80;99.90
1225;DHT22;602;48.000;7.840;2023-04-03T17:14:19;9.70;99.90